Time;durP1;ratioP1;P1;durP2;ratioP2;P2;SDS_P1;SDS_P2;PMS_P1;PMS_P2;Temp;Humidity;BMP_temperature;BMP_pressure;BME280_temperature;BME280_humidity;BME280_pressure;Samples;Min_cycle;Max_cycle;Signal;HPM_P1;HPM_P2
2023/01/09 00:06:06;;;;;;;56.70;31.10;;;;;;;4.75;89.52;97517.38;436354;1248;109373;-39
2023/01/09 00:16:13;;;;;;;72.40;37.50;;;;;;;4.75;89.51;97504.40;436479;1253;96567;-39
2023/01/09 00:26:21;;;;;;;72.70;39.30;;;;;;;4.61;89.32;97495.21;436468;1247;110443;-39
2023/01/09 00:36:29;;;;;;;53.00;31.20;;;;;;;4.45;89.05;97485.11;436465;1253;109819;-39
2023/01/09 00:46:44;;;;;;;47.50;28.60;;;;;;;4.32;89.01;97473.64;436451;1252;97874;-40
2023/01/09 00:56:52;;;;;;;54.30;27.40;;;;;;;4.20;88.95;97474.51;436428;1248;106915;-40
2023/01/09 01:17:23;;;;;;;52.70;30.20;;;;;;;3.96;89.03;97474.83;436515;1252;110167;-40
2023/01/09 01:27:31;;;;;;;51.40;28.90;;;;;;;3.87;89.03;97459.28;436389;1248;107199;-38
2023/01/09 01:37:39;;;;;;;52.30;32.50;;;;;;;3.77;89.06;97451.23;436573;1254;96660;-40
2023/01/09 01:47:48;;;;;;;84.90;44.00;;;;;;;3.62;89.18;97440.17;436617;1249;107606;-40
2023/01/09 01:58:00;;;;;;;68.10;36.10;;;;;;;3.48;89.27;97427.91;436658;1248;97925;-39
2023/01/09 02:08:06;;;;;;;61.40;35.60;;;;;;;3.37;89.23;97421.05;436472;1252;110709;-39
2023/01/09 02:18:22;;;;;;;58.30;34.00;;;;;;;3.32;89.34;97411.88;436494;1253;107930;-39
2023/01/09 02:28:38;;;;;;;65.50;34.50;;;;;;;3.28;89.36;97405.59;436439;1248;97866;-39
2023/01/09 02:38:47;;;;;;;50.40;30.90;;;;;;;3.19;89.54;97411.94;436332;1263;109566;-39
2023/01/09 02:48:55;;;;;;;54.70;30.90;;;;;;;3.18;89.83;97411.74;437238;1252;96618;-39
2023/01/09 02:59:14;;;;;;;52.00;31.40;;;;;;;3.20;90.13;97399.59;436145;1253;409428;-39
2023/01/09 03:09:24;;;;;;;55.40;31.50;;;;;;;3.22;90.30;97389.36;436373;1253;108038;-40
2023/01/09 03:19:35;;;;;;;53.60;31.90;;;;;;;3.27;90.46;97370.95;436426;1255;96626;-39
2023/01/09 03:39:49;;;;;;;66.20;36.00;;;;;;;3.26;90.89;97354.35;436437;1248;97458;-39
2023/01/09 03:49:57;;;;;;;55.10;35.30;;;;;;;3.17;90.88;97340.39;436545;1253;110905;-40
2023/01/09 04:00:03;;;;;;;71.40;38.00;;;;;;;3.09;90.99;97334.62;436319;1253;107543;-40
2023/01/09 04:10:13;;;;;;;66.60;35.90;;;;;;;3.03;91.02;97328.67;436570;1250;97890;-39
2023/01/09 04:20:20;;;;;;;58.30;34.20;;;;;;;2.98;91.15;97320.84;436446;1251;107056;-40
2023/01/09 04:30:27;;;;;;;59.20;35.00;;;;;;;2.89;91.01;97311.16;436378;1251;97983;-39
2023/01/09 04:40:34;;;;;;;62.20;36.80;;;;;;;2.79;91.10;97302.27;436548;1253;110815;-40
2023/01/09 04:50:41;;;;;;;66.70;37.60;;;;;;;2.74;91.31;97292.83;436292;1251;109197;-40
2023/01/09 05:00:49;;;;;;;63.40;36.90;;;;;;;2.72;91.39;97284.05;436484;1249;97867;-39
2023/01/09 05:10:56;;;;;;;57.20;35.30;;;;;;;2.67;91.33;97278.84;436471;1252;107641;-40
2023/01/09 05:31:10;;;;;;;58.90;34.90;;;;;;;2.74;91.40;97264.20;436403;1249;109596;-40
2023/01/09 05:41:17;;;;;;;68.40;42.40;;;;;;;2.74;91.45;97257.17;436440;1253;108824;-39
2023/01/09 05:51:25;;;;;;;70.90;42.50;;;;;;;2.81;91.51;97249.12;436349;1250;97881;-39
2023/01/09 06:01:32;;;;;;;107.70;57.40;;;;;;;2.87;91.67;97230.41;436448;1253;108343;-38
2023/01/09 06:11:39;;;;;;;92.00;50.80;;;;;;;2.88;91.96;97207.91;436457;1253;97861;-39
2023/01/09 06:21:47;;;;;;;107.70;58.10;;;;;;;2.91;91.94;97207.73;436629;1248;97865;-38
2023/01/09 06:31:54;;;;;;;89.40;52.30;;;;;;;3.05;92.02;97197.77;436383;1253;110919;-39
2023/01/09 06:42:01;;;;;;;75.40;46.30;;;;;;;3.31;92.16;97195.94;436382;1253;109119;-40
2023/01/09 06:52:09;;;;;;;67.50;38.80;;;;;;;3.52;92.14;97195.70;436398;1253;97222;-39
2023/01/09 07:02:15;;;;;;;63.10;36.20;;;;;;;3.72;92.17;97186.79;436467;1251;109327;-39
2023/01/09 07:12:22;;;;;;;61.20;35.80;;;;;;;3.90;92.15;97186.79;436466;1254;97453;-39
2023/01/09 07:22:29;;;;;;;67.40;37.60;;;;;;;3.99;91.97;97188.21;436402;1261;110048;-39
2023/01/09 07:42:43;;;;;;;50.80;31.60;;;;;;;4.13;92.02;97195.64;436413;1253;97454;-39
2023/01/09 07:52:50;;;;;;;50.30;29.30;;;;;;;4.23;92.20;97192.67;436495;1251;108557;-38
2023/01/09 08:02:57;;;;;;;39.30;24.30;;;;;;;4.41;92.49;97188.21;436372;1252;98165;-39
2023/01/09 08:13:04;;;;;;;38.00;21.10;;;;;;;4.63;92.71;97184.92;436535;1254;109872;-39
2023/01/09 08:23:11;;;;;;;33.60;21.70;;;;;;;4.82;93.25;97179.64;436413;1253;108006;-39
2023/01/09 08:33:18;;;;;;;37.40;23.40;;;;;;;4.91;93.21;97169.52;436423;1254;97966;-40
2023/01/09 08:53:48;;;;;;;41.60;23.50;;;;;;;5.06;93.51;97162.59;436350;1253;97964;-39
2023/01/09 09:03:55;;;;;;;38.40;22.30;;;;;;;5.16;93.66;97156.67;436389;1261;109871;-40
2023/01/09 09:24:10;;;;;;;41.70;24.50;;;;;;;5.46;94.01;97143.17;436447;1253;97854;-40
2023/01/09 09:34:17;;;;;;;34.00;20.30;;;;;;;5.62;94.53;97136.14;436416;1253;108495;-38
2023/01/09 09:55:06;;;;;;;31.30;18.30;;;;;;;5.99;95.64;97116.89;436495;1261;109238;-40
2023/01/09 10:05:12;;;;;;;27.90;17.80;;;;;;;6.15;95.63;97114.89;436291;1261;108213;-40
2023/01/09 10:25:24;;;;;;;26.00;17.90;;;;;;;6.49;96.27;97107.23;436319;1254;108586;-40
2023/01/09 10:35:49;;;;;;;28.80;19.10;;;;;;;6.52;95.85;97100.86;436372;1254;97944;-40
2023/01/09 10:46:02;;;;;;;32.80;20.50;;;;;;;6.55;95.87;97094.23;436428;1254;110463;-40
2023/01/09 10:56:07;;;;;;;29.20;19.20;;;;;;;6.62;95.91;97088.13;436328;1254;106598;-40
2023/01/09 11:06:15;;;;;;;30.60;18.90;;;;;;;6.70;95.94;97085.48;436374;1254;97981;-40
2023/01/09 11:16:23;;;;;;;32.40;19.00;;;;;;;6.81;95.98;97081.14;436532;1253;109097;-40
2023/01/09 11:26:31;;;;;;;34.90;20.60;;;;;;;6.91;96.09;97075.83;436391;1254;97861;-40
2023/01/09 11:36:39;;;;;;;34.80;21.40;;;;;;;7.03;96.08;97071.34;436384;1248;109244;-39
2023/01/09 11:46:46;;;;;;;37.70;23.20;;;;;;;7.22;96.22;97066.98;436231;1261;108068;-38
2023/01/09 11:56:55;;;;;;;36.00;22.00;;;;;;;7.48;96.20;97065.04;436407;1253;97362;-40
2023/01/09 12:07:20;;;;;;;25.90;17.50;;;;;;;7.63;96.10;97059.42;436272;1252;107693;-39
2023/01/09 12:17:56;;;;;;;26.30;16.50;;;;;;;7.65;95.96;97052.75;436482;1252;97884;-39
2023/01/09 12:28:06;;;;;;;21.50;13.50;;;;;;;7.78;96.02;97044.71;436324;1254;110605;-40
2023/01/09 12:38:22;;;;;;;22.50;14.20;;;;;;;7.89;95.92;97035.66;436335;1252;107917;-40
2023/01/09 12:48:33;;;;;;;28.00;17.60;;;;;;;7.94;95.99;97030.21;436410;1252;98361;-38
2023/01/09 12:58:40;;;;;;;21.70;14.70;;;;;;;8.02;95.82;97042.43;436238;1254;107636;-41
2023/01/09 13:08:45;;;;;;;24.20;14.80;;;;;;;7.97;95.78;97046.55;436297;1253;97979;-39
2023/01/09 13:18:57;;;;;;;19.20;12.90;;;;;;;7.94;95.76;97040.70;436268;1251;110628;-39
2023/01/09 13:29:03;;;;;;;20.20;11.70;;;;;;;7.97;95.74;97030.65;436189;1254;109060;-39
2023/01/09 14:10:04;;;;;;;29.40;16.20;;;;;;;7.93;95.48;97101.79;436247;1252;108709;-40
2023/01/09 14:20:18;;;;;;;25.60;14.60;;;;;;;7.88;95.36;97122.80;436254;1248;107823;-39
2023/01/09 14:30:36;;;;;;;23.20;13.80;;;;;;;7.85;95.46;97120.15;436266;1253;97496;-40
2023/01/09 14:40:45;;;;;;;28.70;15.40;;;;;;;7.85;95.37;97140.15;436190;1248;107985;-40
2023/01/09 14:50:54;;;;;;;15.40;10.50;;;;;;;7.81;95.31;97162.41;436297;1254;97450;-40
2023/01/09 15:01:04;;;;;;;16.60;11.10;;;;;;;7.75;95.18;97174.97;436007;1253;539000;-39
2023/01/09 15:11:13;;;;;;;12.80;9.00;;;;;;;7.67;95.14;97188.79;436394;1248;108341;-40
2023/01/09 15:21:22;;;;;;;15.30;9.70;;;;;;;7.63;95.13;97200.58;436276;1248;97954;-40
2023/01/09 15:31:30;;;;;;;34.90;18.30;;;;;;;7.60;95.08;97202.16;436306;1253;107462;-38
2023/01/09 15:52:03;;;;;;;12.00;8.10;;;;;;;7.46;94.94;97237.55;436374;1252;110604;-41
2023/01/09 16:12:41;;;;;;;18.10;9.60;;;;;;;7.32;94.95;97267.44;436373;1253;120537;-40
2023/01/09 16:22:54;;;;;;;16.50;9.40;;;;;;;7.16;94.80;97269.17;436443;1248;109526;-39
2023/01/09 16:33:01;;;;;;;14.70;8.70;;;;;;;7.09;94.62;97277.35;436336;1252;97890;-40
2023/01/09 16:43:13;;;;;;;14.10;7.70;;;;;;;7.09;94.53;97295.02;436281;1253;110728;-41
2023/01/09 17:03:30;;;;;;;7.30;5.90;;;;;;;7.14;94.58;97323.76;436476;1250;97881;-40
2023/01/09 17:13:37;;;;;;;13.70;8.60;;;;;;;7.07;94.43;97335.95;436411;1248;108549;-40
2023/01/09 17:23:44;;;;;;;15.30;10.30;;;;;;;6.94;94.43;97336.90;436432;1248;97864;-40
2023/01/09 17:33:52;;;;;;;13.70;9.00;;;;;;;6.85;94.13;97342.61;436374;1252;110816;-40
2023/01/09 17:44:00;;;;;;;22.30;12.60;;;;;;;6.78;93.90;97366.88;436475;1250;107044;-40
2023/01/09 17:54:08;;;;;;;57.10;33.50;;;;;;;6.74;94.05;97381.42;436339;1253;97749;-40
2023/01/09 18:04:16;;;;;;;43.60;23.80;;;;;;;6.73;94.09;97392.23;436490;1248;107281;-40
2023/01/09 18:14:23;;;;;;;46.10;23.30;;;;;;;6.72;94.28;97386.91;436507;1248;97559;-41
2023/01/09 18:24:30;;;;;;;52.80;25.00;;;;;;;6.68;94.45;97393.83;436416;1253;110267;-40
2023/01/09 18:44:44;;;;;;;29.70;17.20;;;;;;;6.60;94.12;97415.50;436418;1253;97836;-40
2023/01/09 18:54:52;;;;;;;29.30;18.60;;;;;;;6.56;93.90;97416.79;436475;1253;110636;-40
2023/01/09 19:04:58;;;;;;;40.80;21.30;;;;;;;6.50;93.74;97426.05;436411;1253;108220;-39
2023/01/09 19:15:10;;;;;;;44.70;27.10;;;;;;;6.39;93.97;97447.02;436576;1247;97463;-38
2023/01/09 19:25:16;;;;;;;37.20;21.00;;;;;;;6.22;93.76;97439.84;436441;1253;109850;-41
2023/01/09 19:35:23;;;;;;;44.40;24.00;;;;;;;5.90;93.31;97445.55;436527;1248;97761;-39
2023/01/09 19:45:30;;;;;;;44.60;24.20;;;;;;;5.75;93.37;97461.88;436160;1249;109692;-39
2023/01/09 19:55:38;;;;;;;33.30;19.60;;;;;;;5.74;93.58;97465.27;435878;1253;108499;-41
2023/01/09 20:05:45;;;;;;;44.60;25.60;;;;;;;5.73;93.57;97480.55;435880;1253;97474;-40
2023/01/09 20:15:53;;;;;;;51.90;28.70;;;;;;;5.69;93.67;97495.98;435620;1253;110602;-40
2023/01/09 20:26:00;;;;;;;71.00;38.80;;;;;;;5.55;93.59;97495.34;435812;1251;97892;-40
2023/01/09 20:36:09;;;;;;;49.30;27.40;;;;;;;5.47;93.30;97506.10;435705;1253;110994;-40
2023/01/09 20:46:17;;;;;;;45.20;25.30;;;;;;;5.43;93.34;97519.50;436142;1253;106867;-41
2023/01/09 20:56:23;;;;;;;71.00;38.60;;;;;;;5.45;93.37;97534.83;436481;1252;97437;-39
2023/01/09 21:06:31;;;;;;;68.60;42.90;;;;;;;5.48;93.40;97544.55;436384;1253;109459;-40
2023/01/09 21:16:39;;;;;;;83.10;50.60;;;;;;;5.42;93.63;97554.97;436410;1249;97713;-40
2023/01/09 21:26:46;;;;;;;89.60;49.40;;;;;;;5.23;93.36;97552.16;436582;1248;111054;-40
2023/01/09 21:36:54;;;;;;;71.90;42.50;;;;;;;5.07;93.22;97567.09;436465;1253;107343;-40
2023/01/09 21:47:03;;;;;;;62.90;39.10;;;;;;;5.00;93.10;97570.56;436415;1253;97873;-40
2023/01/09 21:57:11;;;;;;;59.80;35.20;;;;;;;4.98;93.31;97571.51;436474;1253;108665;-40
2023/01/09 22:07:19;;;;;;;81.20;47.20;;;;;;;4.99;93.34;97586.00;436538;1253;108139;-41
2023/01/09 22:17:27;;;;;;;82.30;46.10;;;;;;;4.83;93.29;97592.05;436592;1253;97864;-40
2023/01/09 22:27:35;;;;;;;52.30;31.80;;;;;;;4.72;93.10;97605.07;436589;1253;109727;-40
2023/01/09 22:37:43;;;;;;;32.50;23.00;;;;;;;4.65;93.07;97614.77;436414;1253;108011;-41
2023/01/09 22:47:50;;;;;;;35.90;23.80;;;;;;;4.65;93.17;97624.23;436416;1253;97377;-40
2023/01/09 22:57:58;;;;;;;33.20;23.20;;;;;;;4.76;93.47;97633.20;436588;1253;107484;-41
2023/01/09 23:18:10;;;;;;;46.50;27.80;;;;;;;4.81;93.52;97654.70;436469;1251;111075;-40
2023/01/09 23:28:16;;;;;;;48.30;28.30;;;;;;;4.64;93.34;97666.78;436444;1250;108621;-41
2023/01/09 23:38:23;;;;;;;35.80;23.10;;;;;;;4.59;93.43;97679.31;436427;1252;97899;-40
2023/01/09 23:48:30;;;;;;;36.00;21.20;;;;;;;4.64;93.32;97671.98;436400;1253;109757;-40
2023/01/09 23:58:37;;;;;;;28.60;19.00;;;;;;;4.74;93.39;97680.77;436404;1251;108442;-40
